sensor_id;sensor_type;location;lat;lon;timestamp;P1;durP1;ratioP1;P2;durP2;ratioP2
38557;SDS011;24333;42.626;23.308;2023-08-21T00:00:29;5.47;;;2.80;;
38557;SDS011;24333;42.626;23.308;2023-08-21T00:02:55;6.70;;;2.50;;
38557;SDS011;24333;42.626;23.308;2023-08-21T00:05:20;5.50;;;2.83;;
38557;SDS011;24333;42.626;23.308;2023-08-21T00:07:46;5.03;;;2.88;;
38557;SDS011;24333;42.626;23.308;2023-08-21T00:10:15;2.90;;;2.38;;
38557;SDS011;24333;42.626;23.308;2023-08-21T00:12:41;9.50;;;2.50;;
38557;SDS011;24333;42.626;23.308;2023-08-21T00:15:07;6.07;;;2.78;;
38557;SDS011;24333;42.626;23.308;2023-08-21T00:17:34;3.70;;;2.55;;
38557;SDS011;24333;42.626;23.308;2023-08-21T00:20:00;5.40;;;2.90;;
38557;SDS011;24333;42.626;23.308;2023-08-21T00:22:26;7.80;;;2.95;;
38557;SDS011;24333;42.626;23.308;2023-08-21T00:24:52;5.72;;;2.97;;
38557;SDS011;24333;42.626;23.308;2023-08-21T00:27:17;3.80;;;2.60;;
38557;SDS011;24333;42.626;23.308;2023-08-21T00:29:43;3.30;;;2.47;;
38557;SDS011;24333;42.626;23.308;2023-08-21T00:32:08;3.08;;;2.28;;
38557;SDS011;24333;42.626;23.308;2023-08-21T00:34:34;4.70;;;2.40;;
38557;SDS011;24333;42.626;23.308;2023-08-21T00:36:59;6.05;;;3.00;;
38557;SDS011;24333;42.626;23.308;2023-08-21T00:39:24;5.30;;;2.88;;
38557;SDS011;24333;42.626;23.308;2023-08-21T00:41:50;4.13;;;2.60;;
38557;SDS011;24333;42.626;23.308;2023-08-21T00:44:15;7.82;;;2.60;;
38557;SDS011;24333;42.626;23.308;2023-08-21T00:46:40;6.13;;;3.03;;
38557;SDS011;24333;42.626;23.308;2023-08-21T00:49:06;5.70;;;2.65;;
38557;SDS011;24333;42.626;23.308;2023-08-21T00:51:31;7.20;;;2.58;;
38557;SDS011;24333;42.626;23.308;2023-08-21T00:53:57;7.10;;;3.20;;
38557;SDS011;24333;42.626;23.308;2023-08-21T00:56:23;3.63;;;2.53;;
38557;SDS011;24333;42.626;23.308;2023-08-21T00:58:49;5.65;;;2.40;;
38557;SDS011;24333;42.626;23.308;2023-08-21T01:01:14;3.20;;;2.50;;
38557;SDS011;24333;42.626;23.308;2023-08-21T01:03:43;6.55;;;3.10;;
38557;SDS011;24333;42.626;23.308;2023-08-21T01:06:09;6.43;;;3.28;;
38557;SDS011;24333;42.626;23.308;2023-08-21T06:12:29;10.90;;;4.10;;
38557;SDS011;24333;42.626;23.308;2023-08-21T06:14:55;8.38;;;3.63;;
38557;SDS011;24333;42.626;23.308;2023-08-21T06:17:20;5.57;;;3.50;;
38557;SDS011;24333;42.626;23.308;2023-08-21T06:19:46;8.00;;;4.22;;
38557;SDS011;24333;42.626;23.308;2023-08-21T06:22:12;13.35;;;3.78;;
38557;SDS011;24333;42.626;23.308;2023-08-21T06:24:37;6.85;;;3.85;;
38557;SDS011;24333;42.626;23.308;2023-08-21T06:27:03;7.50;;;3.70;;
38557;SDS011;24333;42.626;23.308;2023-08-21T06:29:31;9.88;;;3.40;;
38557;SDS011;24333;42.626;23.308;2023-08-21T06:31:56;7.45;;;4.07;;
38557;SDS011;24333;42.626;23.308;2023-08-21T06:34:22;10.43;;;4.47;;
38557;SDS011;24333;42.626;23.308;2023-08-21T06:36:47;9.85;;;3.90;;
38557;SDS011;24333;42.626;23.308;2023-08-21T06:39:13;9.30;;;4.10;;
38557;SDS011;24333;42.626;23.308;2023-08-21T06:41:38;9.77;;;4.00;;
38557;SDS011;24333;42.626;23.308;2023-08-21T06:44:05;9.20;;;4.25;;
38557;SDS011;24333;42.626;23.308;2023-08-21T06:46:31;7.45;;;4.53;;
38557;SDS011;24333;42.626;23.308;2023-08-21T06:48:56;9.05;;;3.80;;
38557;SDS011;24333;42.626;23.308;2023-08-21T06:51:22;12.23;;;3.72;;
38557;SDS011;24333;42.626;23.308;2023-08-21T06:53:47;7.97;;;3.80;;
38557;SDS011;24333;42.626;23.308;2023-08-21T06:56:14;7.43;;;3.60;;
38557;SDS011;24333;42.626;23.308;2023-08-21T06:58:43;7.93;;;4.55;;
38557;SDS011;24333;42.626;23.308;2023-08-21T07:01:11;11.38;;;3.55;;
38557;SDS011;24333;42.626;23.308;2023-08-21T07:03:37;10.95;;;4.22;;
38557;SDS011;24333;42.626;23.308;2023-08-21T07:06:02;10.35;;;3.90;;
38557;SDS011;24333;42.626;23.308;2023-08-21T07:08:28;8.07;;;4.00;;
38557;SDS011;24333;42.626;23.308;2023-08-21T07:10:54;9.20;;;3.88;;
38557;SDS011;24333;42.626;23.308;2023-08-21T07:13:21;7.07;;;4.05;;
38557;SDS011;24333;42.626;23.308;2023-08-21T07:15:47;6.97;;;3.70;;
38557;SDS011;24333;42.626;23.308;2023-08-21T07:18:14;6.10;;;2.80;;
38557;SDS011;24333;42.626;23.308;2023-08-21T07:20:40;5.85;;;3.42;;
38557;SDS011;24333;42.626;23.308;2023-08-21T07:23:11;6.18;;;3.25;;
38557;SDS011;24333;42.626;23.308;2023-08-21T07:25:39;8.43;;;3.13;;
38557;SDS011;24333;42.626;23.308;2023-08-21T07:28:06;6.20;;;3.22;;
38557;SDS011;24333;42.626;23.308;2023-08-21T07:33:31;7.38;;;3.58;;
38557;SDS011;24333;42.626;23.308;2023-08-21T07:36:05;7.03;;;3.58;;
38557;SDS011;24333;42.626;23.308;2023-08-21T07:38:31;13.18;;;3.85;;
38557;SDS011;24333;42.626;23.308;2023-08-21T07:41:40;6.65;;;3.22;;
38557;SDS011;24333;42.626;23.308;2023-08-21T07:44:08;6.53;;;3.72;;
38557;SDS011;24333;42.626;23.308;2023-08-21T07:46:35;7.25;;;3.22;;
38557;SDS011;24333;42.626;23.308;2023-08-21T07:49:03;6.88;;;3.28;;
38557;SDS011;24333;42.626;23.308;2023-08-21T07:51:36;8.77;;;3.30;;
38557;SDS011;24333;42.626;23.308;2023-08-21T07:54:01;5.47;;;3.75;;
38557;SDS011;24333;42.626;23.308;2023-08-21T10:57:31;4.22;;;2.70;;
38557;SDS011;24333;42.626;23.308;2023-08-21T10:59:59;4.50;;;3.00;;
38557;SDS011;24333;42.626;23.308;2023-08-21T11:02:28;5.95;;;2.90;;
38557;SDS011;24333;42.626;23.308;2023-08-21T11:04:55;5.25;;;2.70;;
38557;SDS011;24333;42.626;23.308;2023-08-21T11:07:20;4.82;;;2.65;;
38557;SDS011;24333;42.626;23.308;2023-08-21T11:09:46;4.57;;;3.17;;
38557;SDS011;24333;42.626;23.308;2023-08-21T11:12:13;6.20;;;2.45;;
38557;SDS011;24333;42.626;23.308;2023-08-21T11:14:41;4.28;;;2.67;;
38557;SDS011;24333;42.626;23.308;2023-08-21T11:17:08;4.32;;;2.80;;
38557;SDS011;24333;42.626;23.308;2023-08-21T11:19:34;8.32;;;2.88;;
38557;SDS011;24333;42.626;23.308;2023-08-21T11:22:00;4.82;;;2.40;;
38557;SDS011;24333;42.626;23.308;2023-08-21T11:24:51;4.00;;;2.50;;
38557;SDS011;24333;42.626;23.308;2023-08-21T11:27:17;5.88;;;2.70;;
38557;SDS011;24333;42.626;23.308;2023-08-21T11:29:47;5.72;;;3.05;;
38557;SDS011;24333;42.626;23.308;2023-08-21T11:34:47;5.63;;;2.50;;
38557;SDS011;24333;42.626;23.308;2023-08-21T11:37:15;9.52;;;3.20;;
38557;SDS011;24333;42.626;23.308;2023-08-21T11:39:46;7.75;;;3.08;;
38557;SDS011;24333;42.626;23.308;2023-08-21T11:42:13;5.38;;;2.83;;
38557;SDS011;24333;42.626;23.308;2023-08-21T11:44:41;6.32;;;2.95;;
38557;SDS011;24333;42.626;23.308;2023-08-21T11:47:13;5.07;;;2.90;;
38557;SDS011;24333;42.626;23.308;2023-08-21T11:49:39;4.30;;;2.90;;
38557;SDS011;24333;42.626;23.308;2023-08-21T11:52:09;6.40;;;3.53;;
38557;SDS011;24333;42.626;23.308;2023-08-21T11:54:37;9.02;;;2.63;;
38557;SDS011;24333;42.626;23.308;2023-08-21T11:57:07;8.07;;;2.55;;
38557;SDS011;24333;42.626;23.308;2023-08-21T11:59:33;3.75;;;2.80;;
38557;SDS011;24333;42.626;23.308;2023-08-21T12:01:59;4.05;;;2.75;;
38557;SDS011;24333;42.626;23.308;2023-08-21T12:04:24;7.43;;;3.28;;
38557;SDS011;24333;42.626;23.308;2023-08-21T12:07:10;10.13;;;2.70;;
38557;SDS011;24333;42.626;23.308;2023-08-21T12:09:36;6.13;;;3.15;;
38557;SDS011;24333;42.626;23.308;2023-08-21T12:12:02;6.03;;;2.58;;
38557;SDS011;24333;42.626;23.308;2023-08-21T12:14:28;3.45;;;2.50;;
38557;SDS011;24333;42.626;23.308;2023-08-21T12:16:54;3.42;;;2.22;;
38557;SDS011;24333;42.626;23.308;2023-08-21T12:19:21;2.55;;;2.30;;
38557;SDS011;24333;42.626;23.308;2023-08-21T12:21:48;5.30;;;2.95;;
38557;SDS011;24333;42.626;23.308;2023-08-21T12:24:13;3.85;;;2.72;;
38557;SDS011;24333;42.626;23.308;2023-08-21T12:26:39;5.70;;;2.22;;
38557;SDS011;24333;42.626;23.308;2023-08-21T12:29:04;4.13;;;2.63;;
38557;SDS011;24333;42.626;23.308;2023-08-21T12:31:29;4.65;;;2.50;;
38557;SDS011;24333;42.626;23.308;2023-08-21T12:33:55;4.72;;;2.60;;
38557;SDS011;24333;42.626;23.308;2023-08-21T12:36:21;5.28;;;2.33;;
38557;SDS011;24333;42.626;23.308;2023-08-21T12:38:47;3.97;;;2.80;;
38557;SDS011;24333;42.626;23.308;2023-08-21T12:41:13;8.23;;;2.65;;
38557;SDS011;24333;42.626;23.308;2023-08-21T12:43:38;9.00;;;2.67;;
38557;SDS011;24333;42.626;23.308;2023-08-21T12:46:04;5.68;;;2.58;;
38557;SDS011;24333;42.626;23.308;2023-08-21T12:48:30;5.78;;;2.38;;
38557;SDS011;24333;42.626;23.308;2023-08-21T12:50:55;4.30;;;2.55;;
38557;SDS011;24333;42.626;23.308;2023-08-21T12:53:21;6.95;;;2.58;;
38557;SDS011;24333;42.626;23.308;2023-08-21T12:55:46;5.43;;;2.50;;
38557;SDS011;24333;42.626;23.308;2023-08-21T12:58:12;4.05;;;2.50;;
38557;SDS011;24333;42.626;23.308;2023-08-21T13:00:38;3.45;;;2.63;;
38557;SDS011;24333;42.626;23.308;2023-08-21T13:03:04;5.20;;;2.58;;
38557;SDS011;24333;42.626;23.308;2023-08-21T13:05:30;7.97;;;2.83;;
38557;SDS011;24333;42.626;23.308;2023-08-21T13:07:55;4.40;;;2.40;;
38557;SDS011;24333;42.626;23.308;2023-08-21T13:10:20;3.97;;;2.67;;
38557;SDS011;24333;42.626;23.308;2023-08-21T13:12:46;5.20;;;2.67;;
38557;SDS011;24333;42.626;23.308;2023-08-21T13:15:11;3.92;;;2.33;;
38557;SDS011;24333;42.626;23.308;2023-08-21T13:17:36;4.90;;;2.60;;
38557;SDS011;24333;42.626;23.308;2023-08-21T13:20:02;3.47;;;2.40;;
38557;SDS011;24333;42.626;23.308;2023-08-21T13:22:28;5.93;;;3.03;;
38557;SDS011;24333;42.626;23.308;2023-08-21T13:25:20;6.22;;;2.58;;
38557;SDS011;24333;42.626;23.308;2023-08-21T13:27:47;4.97;;;2.70;;
38557;SDS011;24333;42.626;23.308;2023-08-21T13:30:14;3.70;;;2.47;;
38557;SDS011;24333;42.626;23.308;2023-08-21T13:32:39;4.68;;;2.80;;
38557;SDS011;24333;42.626;23.308;2023-08-21T13:35:05;6.68;;;2.80;;
38557;SDS011;24333;42.626;23.308;2023-08-21T13:37:33;6.90;;;2.83;;
38557;SDS011;24333;42.626;23.308;2023-08-21T13:39:59;4.90;;;2.50;;
38557;SDS011;24333;42.626;23.308;2023-08-21T13:42:26;5.13;;;3.10;;
38557;SDS011;24333;42.626;23.308;2023-08-21T13:44:55;6.32;;;2.58;;
38557;SDS011;24333;42.626;23.308;2023-08-21T13:47:22;5.75;;;2.75;;
38557;SDS011;24333;42.626;23.308;2023-08-21T13:49:47;5.00;;;2.60;;
38557;SDS011;24333;42.626;23.308;2023-08-21T13:52:13;2.90;;;2.28;;
38557;SDS011;24333;42.626;23.308;2023-08-21T16:52:29;11.77;;;4.45;;
38557;SDS011;24333;42.626;23.308;2023-08-21T16:54:55;6.90;;;3.58;;
38557;SDS011;24333;42.626;23.308;2023-08-21T16:57:22;11.90;;;3.70;;
38557;SDS011;24333;42.626;23.308;2023-08-21T16:59:47;9.02;;;3.97;;
38557;SDS011;24333;42.626;23.308;2023-08-21T17:02:12;9.60;;;4.90;;
38557;SDS011;24333;42.626;23.308;2023-08-21T17:04:38;10.40;;;3.85;;
38557;SDS011;24333;42.626;23.308;2023-08-21T17:07:03;5.68;;;3.47;;
38557;SDS011;24333;42.626;23.308;2023-08-21T17:09:29;5.18;;;2.83;;
38557;SDS011;24333;42.626;23.308;2023-08-21T17:11:54;5.80;;;2.88;;
38557;SDS011;24333;42.626;23.308;2023-08-21T17:14:19;6.20;;;3.40;;
38557;SDS011;24333;42.626;23.308;2023-08-21T17:16:45;5.03;;;3.22;;
38557;SDS011;24333;42.626;23.308;2023-08-21T17:19:10;7.65;;;3.40;;
38557;SDS011;24333;42.626;23.308;2023-08-21T17:21:35;7.35;;;3.63;;
38557;SDS011;24333;42.626;23.308;2023-08-21T17:24:01;3.85;;;2.67;;
38557;SDS011;24333;42.626;23.308;2023-08-21T17:26:26;6.00;;;3.63;;
38557;SDS011;24333;42.626;23.308;2023-08-21T17:28:51;8.15;;;3.10;;
38557;SDS011;24333;42.626;23.308;2023-08-21T17:31:17;7.72;;;3.35;;
38557;SDS011;24333;42.626;23.308;2023-08-21T17:33:42;5.60;;;3.20;;
38557;SDS011;24333;42.626;23.308;2023-08-21T17:36:08;8.77;;;3.53;;
38557;SDS011;24333;42.626;23.308;2023-08-21T17:38:33;6.68;;;3.60;;
38557;SDS011;24333;42.626;23.308;2023-08-21T17:40:58;5.95;;;3.38;;
38557;SDS011;24333;42.626;23.308;2023-08-21T17:43:24;7.40;;;3.33;;
38557;SDS011;24333;42.626;23.308;2023-08-21T17:45:49;5.05;;;3.40;;
38557;SDS011;24333;42.626;23.308;2023-08-21T17:48:14;7.10;;;3.97;;
38557;SDS011;24333;42.626;23.308;2023-08-21T17:50:40;4.80;;;3.22;;
38557;SDS011;24333;42.626;23.308;2023-08-21T17:53:07;9.30;;;4.03;;
38557;SDS011;24333;42.626;23.308;2023-08-21T17:55:33;8.90;;;3.38;;
38557;SDS011;24333;42.626;23.308;2023-08-21T17:57:59;5.57;;;3.78;;
38557;SDS011;24333;42.626;23.308;2023-08-21T18:00:25;6.50;;;3.30;;
38557;SDS011;24333;42.626;23.308;2023-08-21T18:02:51;7.20;;;3.63;;
38557;SDS011;24333;42.626;23.308;2023-08-21T18:05:16;7.47;;;4.30;;
38557;SDS011;24333;42.626;23.308;2023-08-21T18:07:42;6.78;;;4.03;;
38557;SDS011;24333;42.626;23.308;2023-08-21T18:10:08;6.55;;;4.28;;
38557;SDS011;24333;42.626;23.308;2023-08-21T18:12:35;6.57;;;3.50;;
38557;SDS011;24333;42.626;23.308;2023-08-21T18:15:01;7.63;;;3.67;;
38557;SDS011;24333;42.626;23.308;2023-08-21T18:17:30;7.90;;;3.83;;
38557;SDS011;24333;42.626;23.308;2023-08-21T18:19:55;8.82;;;3.95;;
38557;SDS011;24333;42.626;23.308;2023-08-21T18:22:21;5.35;;;3.40;;
38557;SDS011;24333;42.626;23.308;2023-08-21T18:24:46;11.65;;;4.28;;
38557;SDS011;24333;42.626;23.308;2023-08-21T18:27:11;8.10;;;3.80;;
38557;SDS011;24333;42.626;23.308;2023-08-21T18:29:37;6.07;;;4.03;;
38557;SDS011;24333;42.626;23.308;2023-08-21T18:32:05;8.98;;;4.82;;
38557;SDS011;24333;42.626;23.308;2023-08-21T18:34:31;9.77;;;4.88;;
38557;SDS011;24333;42.626;23.308;2023-08-21T18:36:59;5.88;;;3.50;;
38557;SDS011;24333;42.626;23.308;2023-08-21T18:39:26;6.18;;;3.75;;
38557;SDS011;24333;42.626;23.308;2023-08-21T18:41:52;6.07;;;3.60;;
38557;SDS011;24333;42.626;23.308;2023-08-21T18:44:17;6.90;;;3.67;;
38557;SDS011;24333;42.626;23.308;2023-08-21T18:46:42;11.32;;;4.03;;
38557;SDS011;24333;42.626;23.308;2023-08-21T18:49:08;7.93;;;3.65;;
38557;SDS011;24333;42.626;23.308;2023-08-21T19:08:24;5.38;;;3.58;;
38557;SDS011;24333;42.626;23.308;2023-08-21T19:10:50;5.90;;;3.92;;
38557;SDS011;24333;42.626;23.308;2023-08-21T19:13:15;7.20;;;3.78;;
38557;SDS011;24333;42.626;23.308;2023-08-21T19:15:41;6.32;;;4.18;;
38557;SDS011;24333;42.626;23.308;2023-08-21T19:18:06;6.88;;;3.83;;
38557;SDS011;24333;42.626;23.308;2023-08-21T19:20:31;6.15;;;3.50;;
38557;SDS011;24333;42.626;23.308;2023-08-21T19:22:57;5.85;;;3.78;;
38557;SDS011;24333;42.626;23.308;2023-08-21T19:25:22;5.57;;;3.88;;
38557;SDS011;24333;42.626;23.308;2023-08-21T19:27:48;8.25;;;3.97;;
38557;SDS011;24333;42.626;23.308;2023-08-21T19:30:14;5.78;;;3.60;;
38557;SDS011;24333;42.626;23.308;2023-08-21T19:32:39;4.97;;;3.50;;
38557;SDS011;24333;42.626;23.308;2023-08-21T19:35:06;7.28;;;4.13;;
38557;SDS011;24333;42.626;23.308;2023-08-21T19:37:32;5.65;;;3.55;;
38557;SDS011;24333;42.626;23.308;2023-08-21T19:39:57;5.35;;;3.53;;
38557;SDS011;24333;42.626;23.308;2023-08-21T19:42:23;6.45;;;4.20;;
38557;SDS011;24333;42.626;23.308;2023-08-21T19:44:50;5.05;;;3.42;;
38557;SDS011;24333;42.626;23.308;2023-08-21T19:47:15;7.80;;;3.38;;
38557;SDS011;24333;42.626;23.308;2023-08-21T19:49:41;5.97;;;3.75;;
38557;SDS011;24333;42.626;23.308;2023-08-21T19:52:06;5.40;;;3.60;;
38557;SDS011;24333;42.626;23.308;2023-08-21T19:54:32;6.65;;;4.07;;
38557;SDS011;24333;42.626;23.308;2023-08-21T19:56:57;8.15;;;4.45;;
38557;SDS011;24333;42.626;23.308;2023-08-21T19:59:23;7.00;;;4.28;;
38557;SDS011;24333;42.626;23.308;2023-08-21T20:01:49;10.75;;;4.00;;
38557;SDS011;24333;42.626;23.308;2023-08-21T20:04:15;8.50;;;4.00;;
38557;SDS011;24333;42.626;23.308;2023-08-21T20:06:40;6.38;;;4.07;;
38557;SDS011;24333;42.626;23.308;2023-08-21T20:09:06;4.85;;;3.45;;
38557;SDS011;24333;42.626;23.308;2023-08-21T20:11:31;9.55;;;3.97;;
38557;SDS011;24333;42.626;23.308;2023-08-21T20:13:57;7.68;;;3.92;;
38557;SDS011;24333;42.626;23.308;2023-08-21T20:16:22;9.93;;;4.47;;
38557;SDS011;24333;42.626;23.308;2023-08-21T20:18:48;9.77;;;4.22;;
38557;SDS011;24333;42.626;23.308;2023-08-21T20:21:13;8.40;;;4.88;;
38557;SDS011;24333;42.626;23.308;2023-08-21T20:23:41;6.63;;;4.03;;
38557;SDS011;24333;42.626;23.308;2023-08-21T20:26:07;10.63;;;4.80;;
38557;SDS011;24333;42.626;23.308;2023-08-21T20:28:33;5.68;;;3.88;;
38557;SDS011;24333;42.626;23.308;2023-08-21T20:30:59;9.10;;;4.28;;
38557;SDS011;24333;42.626;23.308;2023-08-21T20:33:33;5.63;;;4.20;;
38557;SDS011;24333;42.626;23.308;2023-08-21T20:35:58;6.43;;;3.60;;
38557;SDS011;24333;42.626;23.308;2023-08-21T20:38:27;7.07;;;4.32;;
38557;SDS011;24333;42.626;23.308;2023-08-21T20:40:53;8.88;;;4.18;;
38557;SDS011;24333;42.626;23.308;2023-08-21T20:43:22;6.75;;;3.85;;
38557;SDS011;24333;42.626;23.308;2023-08-21T20:45:47;5.88;;;3.90;;
38557;SDS011;24333;42.626;23.308;2023-08-21T20:48:13;5.63;;;3.97;;
38557;SDS011;24333;42.626;23.308;2023-08-21T20:50:38;8.45;;;4.50;;
38557;SDS011;24333;42.626;23.308;2023-08-21T20:53:03;7.57;;;4.88;;
38557;SDS011;24333;42.626;23.308;2023-08-21T20:55:29;6.45;;;4.15;;
38557;SDS011;24333;42.626;23.308;2023-08-21T20:57:55;8.38;;;4.28;;
38557;SDS011;24333;42.626;23.308;2023-08-21T21:00:21;7.43;;;4.57;;
38557;SDS011;24333;42.626;23.308;2023-08-21T21:02:46;5.95;;;4.25;;
38557;SDS011;24333;42.626;23.308;2023-08-21T21:05:11;7.13;;;4.38;;
38557;SDS011;24333;42.626;23.308;2023-08-21T21:13:25;8.90;;;4.50;;
38557;SDS011;24333;42.626;23.308;2023-08-21T21:15:50;6.45;;;4.00;;
38557;SDS011;24333;42.626;23.308;2023-08-21T21:18:16;5.55;;;3.97;;
38557;SDS011;24333;42.626;23.308;2023-08-21T21:20:41;10.77;;;4.57;;
38557;SDS011;24333;42.626;23.308;2023-08-21T21:23:07;6.97;;;4.53;;
38557;SDS011;24333;42.626;23.308;2023-08-21T21:25:32;9.23;;;4.55;;
38557;SDS011;24333;42.626;23.308;2023-08-21T21:27:57;6.00;;;4.40;;
38557;SDS011;24333;42.626;23.308;2023-08-21T21:30:23;17.80;;;4.22;;
38557;SDS011;24333;42.626;23.308;2023-08-21T21:32:49;8.57;;;4.53;;
38557;SDS011;24333;42.626;23.308;2023-08-21T21:35:15;7.97;;;4.50;;
38557;SDS011;24333;42.626;23.308;2023-08-21T21:37:40;6.68;;;4.40;;
38557;SDS011;24333;42.626;23.308;2023-08-21T21:40:06;9.85;;;4.85;;
38557;SDS011;24333;42.626;23.308;2023-08-21T21:42:32;7.75;;;4.45;;
38557;SDS011;24333;42.626;23.308;2023-08-21T21:44:57;8.15;;;4.43;;
38557;SDS011;24333;42.626;23.308;2023-08-21T21:47:22;6.82;;;4.32;;
38557;SDS011;24333;42.626;23.308;2023-08-21T21:49:48;10.45;;;4.90;;
38557;SDS011;24333;42.626;23.308;2023-08-21T21:52:13;10.63;;;4.35;;
38557;SDS011;24333;42.626;23.308;2023-08-21T21:54:38;7.15;;;4.50;;
38557;SDS011;24333;42.626;23.308;2023-08-21T21:57:04;10.23;;;4.40;;
38557;SDS011;24333;42.626;23.308;2023-08-21T21:59:29;8.88;;;5.03;;
38557;SDS011;24333;42.626;23.308;2023-08-21T22:01:55;9.82;;;4.50;;
38557;SDS011;24333;42.626;23.308;2023-08-21T22:04:20;9.13;;;4.68;;
38557;SDS011;24333;42.626;23.308;2023-08-21T22:06:45;6.72;;;4.55;;
38557;SDS011;24333;42.626;23.308;2023-08-21T22:09:11;6.38;;;4.47;;
38557;SDS011;24333;42.626;23.308;2023-08-21T22:11:36;7.57;;;4.55;;
38557;SDS011;24333;42.626;23.308;2023-08-21T22:14:02;8.82;;;4.47;;
38557;SDS011;24333;42.626;23.308;2023-08-21T22:16:28;6.82;;;4.05;;
38557;SDS011;24333;42.626;23.308;2023-08-21T22:18:53;8.30;;;4.43;;
38557;SDS011;24333;42.626;23.308;2023-08-21T22:21:19;8.32;;;5.10;;
38557;SDS011;24333;42.626;23.308;2023-08-21T22:23:44;6.72;;;4.07;;
38557;SDS011;24333;42.626;23.308;2023-08-21T22:26:09;7.57;;;4.50;;
38557;SDS011;24333;42.626;23.308;2023-08-21T22:28:35;6.50;;;4.45;;
38557;SDS011;24333;42.626;23.308;2023-08-21T22:31:00;6.25;;;4.13;;
38557;SDS011;24333;42.626;23.308;2023-08-21T22:33:26;7.00;;;4.63;;
38557;SDS011;24333;42.626;23.308;2023-08-21T22:35:51;6.10;;;4.30;;
38557;SDS011;24333;42.626;23.308;2023-08-21T22:38:16;7.32;;;4.50;;
38557;SDS011;24333;42.626;23.308;2023-08-21T22:40:42;9.20;;;4.70;;
38557;SDS011;24333;42.626;23.308;2023-08-21T22:43:07;7.70;;;3.80;;
38557;SDS011;24333;42.626;23.308;2023-08-21T22:45:32;11.32;;;5.05;;
38557;SDS011;24333;42.626;23.308;2023-08-21T22:47:58;7.85;;;4.70;;
38557;SDS011;24333;42.626;23.308;2023-08-21T22:50:23;10.38;;;4.75;;
38557;SDS011;24333;42.626;23.308;2023-08-21T22:52:49;9.40;;;4.80;;
38557;SDS011;24333;42.626;23.308;2023-08-21T22:55:14;7.32;;;4.80;;
38557;SDS011;24333;42.626;23.308;2023-08-21T22:57:40;8.00;;;4.93;;
38557;SDS011;24333;42.626;23.308;2023-08-21T23:00:05;12.02;;;4.75;;
38557;SDS011;24333;42.626;23.308;2023-08-21T23:02:33;12.30;;;4.93;;
38557;SDS011;24333;42.626;23.308;2023-08-21T23:04:58;6.65;;;4.53;;
38557;SDS011;24333;42.626;23.308;2023-08-21T23:07:24;8.68;;;4.53;;
38557;SDS011;24333;42.626;23.308;2023-08-21T23:09:49;8.20;;;5.03;;
38557;SDS011;24333;42.626;23.308;2023-08-21T23:12:15;8.70;;;4.82;;
38557;SDS011;24333;42.626;23.308;2023-08-21T23:14:40;10.05;;;4.95;;
38557;SDS011;24333;42.626;23.308;2023-08-21T23:17:05;6.85;;;4.82;;
38557;SDS011;24333;42.626;23.308;2023-08-21T23:19:32;11.57;;;5.57;;
38557;SDS011;24333;42.626;23.308;2023-08-21T23:21:57;7.07;;;4.32;;
38557;SDS011;24333;42.626;23.308;2023-08-21T23:24:23;7.90;;;5.18;;
38557;SDS011;24333;42.626;23.308;2023-08-21T23:26:48;8.50;;;5.07;;
38557;SDS011;24333;42.626;23.308;2023-08-21T23:29:14;8.30;;;4.70;;
38557;SDS011;24333;42.626;23.308;2023-08-21T23:31:39;9.40;;;4.75;;
38557;SDS011;24333;42.626;23.308;2023-08-21T23:34:05;11.25;;;5.05;;
38557;SDS011;24333;42.626;23.308;2023-08-21T23:36:30;7.00;;;5.13;;
38557;SDS011;24333;42.626;23.308;2023-08-21T23:38:55;10.32;;;4.85;;
38557;SDS011;24333;42.626;23.308;2023-08-21T23:41:21;7.68;;;4.75;;
38557;SDS011;24333;42.626;23.308;2023-08-21T23:43:46;6.20;;;4.53;;
38557;SDS011;24333;42.626;23.308;2023-08-21T23:46:13;12.18;;;4.88;;
38557;SDS011;24333;42.626;23.308;2023-08-21T23:48:39;9.40;;;5.03;;
38557;SDS011;24333;42.626;23.308;2023-08-21T23:51:04;8.05;;;5.18;;
38557;SDS011;24333;42.626;23.308;2023-08-21T23:53:32;8.60;;;5.15;;
38557;SDS011;24333;42.626;23.308;2023-08-21T23:55:58;7.45;;;4.78;;
38557;SDS011;24333;42.626;23.308;2023-08-21T23:58:23;8.73;;;4.93;;
